Time;durP1;ratioP1;P1;durP2;ratioP2;P2;SDS_P1;SDS_P2;PMS_P1;PMS_P2;Temp;Humidity;BMP_temperature;BMP_pressure;BME280_temperature;BME280_humidity;BME280_pressure;Samples;Min_cycle;Max_cycle;Signal;HPM_P1;HPM_P2
2021/01/22 00:01:20;;;;;;;5.45;2.20;;;9.30;99.90;;;;;;4994051;28;20034;-68
2021/01/22 00:03:46;;;;;;;4.80;2.58;;;9.30;99.90;;;;;;4994524;28;20070;-68
2021/01/22 00:06:13;;;;;;;4.15;1.80;;;9.20;99.90;;;;;;4993917;28;20038;-68
2021/01/22 00:08:40;;;;;;;5.13;1.75;;;9.30;99.90;;;;;;4995104;28;20113;-67
2021/01/22 00:11:06;;;;;;;6.78;2.08;;;9.30;99.90;;;;;;4994240;28;20038;-68
2021/01/22 00:13:33;;;;;;;2.10;1.65;;;9.20;99.90;;;;;;5007295;28;20042;-69
2021/01/22 00:15:59;;;;;;;3.50;2.20;;;9.20;99.90;;;;;;5012336;28;20034;-69
2021/01/22 00:18:26;;;;;;;5.75;2.28;;;9.10;99.90;;;;;;4996018;28;20050;-69
2021/01/22 00:20:52;;;;;;;;;;;9.10;99.90;;;;;;4994279;28;20089;-69
2021/01/22 00:23:19;;;;;;;4.60;2.13;;;9.20;99.90;;;;;;5000188;28;19953;-68
2021/01/22 00:25:46;;;;;;;3.95;1.95;;;9.10;99.90;;;;;;4994768;28;20378;-68
2021/01/22 00:28:13;;;;;;;5.03;2.25;;;9.20;99.90;;;;;;4993483;28;20042;-69
2021/01/22 00:30:42;;;;;;;3.30;2.25;;;9.10;99.90;;;;;;4994063;28;20042;-69
2021/01/22 00:33:09;;;;;;;3.33;1.85;;;9.20;99.90;;;;;;4993336;28;20108;-69
2021/01/22 00:35:35;;;;;;;3.30;1.60;;;9.20;99.90;;;;;;4994820;28;20046;-69
2021/01/22 00:38:02;;;;;;;3.00;1.75;;;9.10;99.90;;;;;;4994406;28;20049;-68
2021/01/22 00:40:29;;;;;;;4.53;2.13;;;9.20;99.90;;;;;;4994647;28;20057;-69
2021/01/22 00:42:57;;;;;;;3.80;1.77;;;9.10;99.90;;;;;;4995007;28;20076;-68
2021/01/22 00:45:23;;;;;;;2.75;1.52;;;9.10;99.90;;;;;;5009893;28;20069;-68
2021/01/22 00:47:50;;;;;;;6.53;1.95;;;9.10;99.90;;;;;;4994666;28;20101;-68
2021/01/22 00:50:16;;;;;;;;;;;9.20;99.90;;;;;;4994589;28;20357;-67
2021/01/22 00:52:43;;;;;;;5.00;1.70;;;9.20;99.90;;;;;;4994634;28;19921;-70
2021/01/22 00:55:10;;;;;;;4.53;2.33;;;9.20;99.90;;;;;;4994229;28;20131;-68
2021/01/22 00:57:56;;;;;;;3.20;1.60;;;9.20;99.90;;;;;;4994789;28;20085;-68
2021/01/22 01:00:29;;;;;;;3.55;1.75;;;9.20;99.90;;;;;;5009494;28;20050;-68
2021/01/22 01:03:08;;;;;;;2.65;1.55;;;9.20;99.90;;;;;;5009024;28;20111;-67
2021/01/22 01:05:35;;;;;;;2.25;1.70;;;9.20;99.90;;;;;;4993225;28;20089;-68
2021/01/22 01:08:02;;;;;;;7.03;1.98;;;9.30;99.90;;;;;;4992508;28;20081;-69
2021/01/22 01:10:48;;;;;;;2.67;1.58;;;9.20;99.90;;;;;;4994481;28;20491;-68
2021/01/22 01:13:48;;;;;;;4.45;1.88;;;9.20;99.90;;;;;;5005275;28;20402;-67
2021/01/22 01:16:22;;;;;;;4.28;1.92;;;9.20;99.90;;;;;;5028550;28;20080;-68
2021/01/22 01:18:48;;;;;;;2.75;1.48;;;9.10;99.90;;;;;;5013826;28;20443;-68
2021/01/22 01:21:15;;;;;;;3.65;1.80;;;9.10;99.90;;;;;;5013270;28;20042;-67
2021/01/22 01:23:41;;;;;;;12.38;2.53;;;9.10;99.90;;;;;;5013400;28;20038;-68
2021/01/22 01:26:08;;;;;;;2.17;1.65;;;9.30;99.90;;;;;;5013088;28;20046;-68
2021/01/22 01:28:34;;;;;;;4.65;2.05;;;9.20;99.90;;;;;;5013469;28;20069;-67
2021/01/22 01:31:02;;;;;;;5.78;1.70;;;9.30;99.90;;;;;;5012808;28;20069;-68
2021/01/22 01:33:28;;;;;;;5.05;1.67;;;9.30;99.90;;;;;;5013219;28;20407;-67
2021/01/22 01:35:54;;;;;;;4.00;1.95;;;9.20;99.90;;;;;;5013700;28;20072;-68
2021/01/22 01:38:22;;;;;;;4.68;1.90;;;9.20;99.90;;;;;;5012836;28;20049;-68
2021/01/22 01:40:49;;;;;;;3.30;1.60;;;9.20;99.90;;;;;;5013525;28;20041;-67
2021/01/22 01:43:18;;;;;;;2.47;1.52;;;9.20;99.90;;;;;;5012891;28;20076;-68
2021/01/22 01:45:45;;;;;;;3.95;1.80;;;9.20;99.90;;;;;;5012941;28;20427;-68
2021/01/22 01:48:12;;;;;;;5.68;1.80;;;9.20;99.90;;;;;;5012182;28;20050;-68
2021/01/22 01:50:40;;;;;;;3.42;1.60;;;9.30;99.90;;;;;;5013253;28;20056;-68
2021/01/22 01:53:07;;;;;;;4.13;1.70;;;9.40;99.90;;;;;;5012608;28;20052;-68
2021/01/22 01:55:35;;;;;;;3.00;1.77;;;9.40;99.90;;;;;;5012894;28;20042;-68
2021/01/22 01:58:03;;;;;;;3.28;1.40;;;9.30;99.90;;;;;;5012547;28;20479;-68
2021/01/22 02:00:29;;;;;;;3.35;1.85;;;9.30;99.90;;;;;;5012964;28;20077;-67
2021/01/22 02:02:56;;;;;;;3.60;1.55;;;9.30;99.90;;;;;;5012778;28;20555;-68
2021/01/22 02:05:24;;;;;;;2.40;1.83;;;9.30;99.90;;;;;;5012161;28;20125;-68
2021/01/22 02:07:50;;;;;;;3.65;1.35;;;9.20;99.90;;;;;;5013031;28;20037;-68
2021/01/22 02:10:17;;;;;;;2.28;1.63;;;9.10;99.90;;;;;;5012031;28;20484;-67
2021/01/22 02:12:44;;;;;;;5.15;1.85;;;9.30;99.90;;;;;;5005747;28;20069;-68
2021/01/22 02:15:13;;;;;;;6.55;1.67;;;9.40;99.90;;;;;;4992635;28;20051;-70
2021/01/22 02:17:41;;;;;;;3.72;1.80;;;9.20;99.90;;;;;;4993103;28;20049;-68
2021/01/22 02:20:25;;;;;;;1.83;1.27;;;9.30;99.90;;;;;;4993341;28;20046;-68
2021/01/22 02:22:54;;;;;;;2.75;1.70;;;9.30;99.90;;;;;;4992381;28;20142;-68
2021/01/22 02:25:23;;;;;;;5.03;1.50;;;9.20;99.90;;;;;;4992107;28;20085;-68
2021/01/22 02:27:50;;;;;;;2.45;1.48;;;9.20;99.90;;;;;;4993175;28;20050;-68
2021/01/22 02:30:17;;;;;;;2.85;1.60;;;9.10;99.90;;;;;;4992170;28;20042;-68
2021/01/22 02:32:47;;;;;;;3.63;1.88;;;9.10;99.90;;;;;;4992820;28;20125;-69
2021/01/22 02:35:16;;;;;;;3.15;1.40;;;9.00;99.90;;;;;;4991407;28;20159;-68
2021/01/22 02:37:47;;;;;;;6.07;1.80;;;8.90;99.90;;;;;;4992743;28;20054;-68
2021/01/22 02:40:15;;;;;;;5.07;1.77;;;8.90;99.90;;;;;;4991165;28;20046;-68
2021/01/22 02:42:43;;;;;;;3.22;1.40;;;8.90;99.90;;;;;;4992690;28;20537;-68
2021/01/22 02:45:14;;;;;;;2.13;1.67;;;8.80;99.90;;;;;;4992274;28;20042;-69
2021/01/22 02:47:45;;;;;;;5.18;1.67;;;8.70;99.90;;;;;;4992822;28;20053;-68
2021/01/22 02:50:15;;;;;;;1.67;1.55;;;8.70;99.90;;;;;;4991963;28;20105;-68
2021/01/22 02:52:42;;;;;;;2.33;1.50;;;8.70;99.90;;;;;;4993159;28;20046;-67
2021/01/22 02:55:10;;;;;;;5.32;2.35;;;8.70;99.90;;;;;;4991980;28;20054;-67
2021/01/22 02:57:38;;;;;;;2.72;1.40;;;8.70;99.90;;;;;;4992570;28;20129;-67
2021/01/22 03:00:13;;;;;;;4.60;1.73;;;8.70;99.90;;;;;;4992456;28;20088;-68
2021/01/22 03:02:46;;;;;;;4.25;1.95;;;8.70;99.90;;;;;;4992662;28;20069;-68
2021/01/22 03:05:16;;;;;;;2.20;1.55;;;8.60;99.90;;;;;;4992209;28;20046;-67
2021/01/22 03:07:47;;;;;;;2.63;1.40;;;8.60;99.90;;;;;;4992974;28;20038;-68
2021/01/22 03:10:17;;;;;;;5.07;1.63;;;8.70;99.90;;;;;;4991918;28;20042;-68
2021/01/22 03:12:47;;;;;;;2.50;1.30;;;8.60;99.90;;;;;;4999971;28;20498;-69
2021/01/22 03:15:16;;;;;;;4.35;1.90;;;8.60;99.90;;;;;;5012348;28;20042;-69
2021/01/22 03:17:43;;;;;;;3.92;1.63;;;8.60;99.90;;;;;;5012036;28;20495;-69
2021/01/22 03:20:11;;;;;;;3.20;1.63;;;8.50;99.90;;;;;;5011641;28;20391;-69
2021/01/22 03:22:38;;;;;;;2.90;1.63;;;8.50;99.90;;;;;;5012114;28;20042;-69
2021/01/22 03:25:06;;;;;;;4.95;1.30;;;8.50;99.90;;;;;;5011953;28;20049;-69
2021/01/22 03:27:32;;;;;;;4.32;1.63;;;8.50;99.90;;;;;;5012094;28;20426;-69
2021/01/22 03:29:59;;;;;;;;;;;8.60;99.90;;;;;;5012600;28;20058;-69
2021/01/22 03:32:26;;;;;;;3.17;1.20;;;8.60;99.90;;;;;;5011624;28;20495;-69
2021/01/22 03:34:52;;;;;;;4.18;1.55;;;8.60;99.90;;;;;;5011900;28;20072;-69
2021/01/22 03:37:19;;;;;;;2.15;1.58;;;8.60;99.90;;;;;;5011255;28;20131;-69
2021/01/22 03:39:45;;;;;;;3.10;1.33;;;8.50;99.90;;;;;;5011629;28;20128;-69
2021/01/22 03:42:13;;;;;;;3.22;1.58;;;8.50;99.90;;;;;;5011432;28;20099;-69
2021/01/22 03:44:39;;;;;;;6.93;1.80;;;8.50;99.90;;;;;;5011787;28;20070;-68
2021/01/22 03:47:06;;;;;;;2.35;1.50;;;8.50;99.90;;;;;;5013122;28;20090;-68
2021/01/22 03:49:34;;;;;;;3.35;1.70;;;8.50;99.90;;;;;;5015686;28;20045;-68
2021/01/22 03:52:01;;;;;;;3.53;1.58;;;8.50;99.90;;;;;;5014204;28;20431;-69
2021/01/22 03:54:28;;;;;;;5.65;1.52;;;8.50;99.90;;;;;;5014968;28;20263;-68
2021/01/22 03:56:56;;;;;;;3.03;1.27;;;8.40;99.90;;;;;;5015310;28;20140;-68
2021/01/22 03:59:22;;;;;;;3.30;1.60;;;8.30;99.90;;;;;;5014806;28;20109;-68
2021/01/22 04:01:49;;;;;;;5.60;1.60;;;8.40;99.90;;;;;;5015270;28;20052;-68
2021/01/22 04:04:15;;;;;;;9.50;1.70;;;8.30;99.90;;;;;;5014468;28;20052;-68
2021/01/22 04:06:43;;;;;;;5.40;2.00;;;8.30;99.90;;;;;;5030233;28;20042;-68
2021/01/22 04:09:09;;;;;;;5.28;1.40;;;8.40;99.90;;;;;;5014386;28;20042;-69
2021/01/22 04:11:35;;;;;;;3.15;1.55;;;8.40;99.90;;;;;;5015071;28;20065;-69
2021/01/22 04:14:02;;;;;;;7.88;1.92;;;8.50;99.90;;;;;;4997262;28;20393;-69
2021/01/22 04:16:28;;;;;;;;;;;8.50;99.90;;;;;;4995176;28;20388;-69
2021/01/22 04:18:55;;;;;;;3.67;1.23;;;8.50;99.90;;;;;;4995033;28;19922;-68
2021/01/22 04:21:21;;;;;;;4.38;1.35;;;8.50;99.90;;;;;;4994487;28;20054;-69
2021/01/22 04:23:49;;;;;;;5.97;1.60;;;8.60;99.90;;;;;;4995025;28;20050;-69
2021/01/22 04:26:15;;;;;;;8.63;1.80;;;8.60;99.90;;;;;;5009675;28;20399;-69
2021/01/22 04:28:41;;;;;;;4.63;1.85;;;8.60;99.90;;;;;;4995424;28;20074;-69
2021/01/22 04:31:08;;;;;;;3.80;1.45;;;8.60;99.90;;;;;;4995074;28;20050;-69
2021/01/22 04:33:35;;;;;;;5.10;1.95;;;8.60;99.90;;;;;;4995158;28;20105;-69
2021/01/22 04:36:01;;;;;;;6.50;1.20;;;8.80;99.90;;;;;;4995139;28;20046;-69
2021/01/22 04:38:28;;;;;;;4.65;1.55;;;8.80;99.90;;;;;;4994300;28;20053;-69
2021/01/22 04:40:57;;;;;;;3.33;1.40;;;8.80;99.90;;;;;;4994927;28;20042;-68
2021/01/22 04:43:23;;;;;;;4.40;1.30;;;9.00;99.90;;;;;;4994619;28;20049;-69
2021/01/22 04:45:50;;;;;;;8.73;1.60;;;9.10;99.90;;;;;;4994508;28;20053;-69
2021/01/22 04:48:16;;;;;;;6.93;1.70;;;9.10;99.90;;;;;;4994181;28;20051;-69
2021/01/22 04:50:43;;;;;;;2.63;1.33;;;9.10;99.90;;;;;;4994425;28;20121;-69
2021/01/22 04:53:11;;;;;;;4.10;1.73;;;9.10;99.90;;;;;;4994706;28;20077;-72
2021/01/22 04:55:43;;;;;;;3.65;1.35;;;9.10;99.90;;;;;;4994825;28;20050;-69
2021/01/22 04:58:13;;;;;;;5.13;1.50;;;9.20;99.90;;;;;;4993471;28;20042;-73
2021/01/22 05:00:40;;;;;;;3.70;1.48;;;9.20;99.90;;;;;;4994478;28;20046;-69
2021/01/22 05:03:08;;;;;;;7.00;1.20;;;9.10;99.90;;;;;;4994791;28;20057;-69
2021/01/22 05:05:35;;;;;;;5.80;1.33;;;9.20;99.90;;;;;;4993961;28;20047;-69
2021/01/22 05:08:02;;;;;;;5.85;1.25;;;9.20;99.90;;;;;;4994217;28;20044;-69
2021/01/22 05:10:29;;;;;;;6.45;1.85;;;9.20;99.90;;;;;;4993568;28;20042;-69
2021/01/22 05:12:55;;;;;;;4.80;1.33;;;9.30;99.90;;;;;;5003031;28;20064;-69
2021/01/22 05:15:24;;;;;;;6.43;1.48;;;9.20;99.90;;;;;;5013374;28;20196;-69
2021/01/22 05:17:59;;;;;;;5.88;1.65;;;9.30;99.90;;;;;;5013664;28;20080;-69
2021/01/22 05:20:36;;;;;;;4.90;1.60;;;9.30;99.90;;;;;;5013265;28;20050;-69
2021/01/22 05:23:04;;;;;;;;;;;9.40;99.90;;;;;;5013758;28;20487;-69
2021/01/22 05:25:31;;;;;;;4.43;1.52;;;9.40;99.90;;;;;;5012984;28;19976;-68
2021/01/22 05:27:58;;;;;;;9.02;1.55;;;9.40;99.90;;;;;;5014201;28;20053;-69
2021/01/22 05:30:29;;;;;;;5.65;1.85;;;9.30;99.90;;;;;;5013477;28;20041;-69
2021/01/22 05:33:14;;;;;;;7.95;1.73;;;9.20;99.90;;;;;;5013547;28;20136;-69
2021/01/22 05:35:41;;;;;;;5.07;1.65;;;9.20;99.90;;;;;;5013671;28;20077;-68
2021/01/22 05:38:07;;;;;;;;;;;9.10;99.90;;;;;;5013718;28;20046;-69
2021/01/22 05:40:34;;;;;;;5.80;1.40;;;9.00;99.90;;;;;;5012550;28;19922;-69
2021/01/22 05:43:01;;;;;;;7.93;2.00;;;9.00;99.90;;;;;;5013194;28;20307;-68
2021/01/22 05:45:39;;;;;;;3.75;0.77;;;9.00;99.90;;;;;;5012456;28;20097;-69
2021/01/22 05:48:17;;;;;;;1.85;0.55;;;8.50;99.90;;;;;;5012665;28;20495;-69
2021/01/22 05:50:45;;;;;;;4.15;1.50;;;7.80;99.90;;;;;;5028575;28;20041;-68
2021/01/22 05:53:12;;;;;;;7.57;1.40;;;7.20;99.90;;;;;;5013199;28;20053;-68
2021/01/22 05:55:39;;;;;;;1.98;1.10;;;6.90;99.90;;;;;;5013186;28;20054;-68
2021/01/22 05:58:05;;;;;;;;;;;6.60;99.90;;;;;;5013639;28;20049;-68
2021/01/22 06:00:32;;;;;;;2.28;1.30;;;6.50;99.90;;;;;;5012484;28;19944;-68
2021/01/22 06:03:00;;;;;;;1.38;0.70;;;6.30;99.90;;;;;;5012974;28;20129;-68
2021/01/22 06:05:29;;;;;;;2.20;0.68;;;6.10;99.90;;;;;;5011029;28;20046;-68
2021/01/22 06:08:07;;;;;;;1.75;1.00;;;6.00;99.90;;;;;;5012842;28;20049;-68
2021/01/22 06:10:39;;;;;;;3.35;1.50;;;6.00;99.90;;;;;;5026730;28;20042;-68
2021/01/22 06:13:09;;;;;;;3.30;2.13;;;5.90;99.90;;;;;;5002607;28;20046;-68
2021/01/22 06:15:36;;;;;;;1.90;1.35;;;5.90;99.90;;;;;;4993031;28;20058;-69
2021/01/22 06:18:05;;;;;;;5.90;1.73;;;5.80;99.90;;;;;;4993280;28;20077;-68
2021/01/22 06:20:40;;;;;;;4.53;1.60;;;5.80;99.90;;;;;;4992392;28;20042;-69
2021/01/22 06:23:10;;;;;;;1.45;0.90;;;5.80;99.90;;;;;;4993326;28;20046;-67
2021/01/22 06:25:37;;;;;;;0.80;0.80;;;5.80;99.90;;;;;;4992321;28;20042;-67
2021/01/22 06:28:05;;;;;;;3.00;1.52;;;5.70;99.90;;;;;;4993069;28;20051;-67
2021/01/22 06:30:34;;;;;;;3.53;1.45;;;5.60;99.90;;;;;;4992470;28;20050;-67
2021/01/22 06:33:02;;;;;;;3.85;1.88;;;5.60;99.90;;;;;;4992955;28;20047;-67
2021/01/22 06:35:32;;;;;;;1.05;0.65;;;5.60;99.90;;;;;;4992232;28;20121;-67
2021/01/22 06:37:59;;;;;;;2.28;0.70;;;5.50;99.90;;;;;;4992631;28;20096;-67
2021/01/22 06:40:26;;;;;;;2.30;1.08;;;5.50;99.90;;;;;;4992326;28;20483;-67
2021/01/22 06:42:53;;;;;;;3.00;0.73;;;5.40;99.90;;;;;;4992531;28;20070;-66
2021/01/22 06:45:20;;;;;;;1.00;0.68;;;5.40;99.90;;;;;;4990992;28;20133;-67
2021/01/22 06:48:00;;;;;;;4.00;1.05;;;5.30;99.90;;;;;;4992730;28;20046;-67
2021/01/22 06:50:27;;;;;;;2.00;1.00;;;5.30;99.90;;;;;;5007222;28;20046;-66
2021/01/22 06:53:11;;;;;;;0.68;0.55;;;5.20;99.90;;;;;;4992702;28;20050;-66
2021/01/22 06:56:09;;;;;;;1.15;0.60;;;5.10;99.90;;;;;;4992013;28;20399;-68
2021/01/22 06:58:36;;;;;;;2.50;0.30;;;5.10;99.90;;;;;;4992005;28;20057;-68
2021/01/22 07:01:05;;;;;;;0.88;0.50;;;5.00;99.90;;;;;;4992660;28;20042;-66
2021/01/22 07:03:51;;;;;;;1.55;0.85;;;5.00;99.90;;;;;;4991761;28;20124;-66
2021/01/22 07:06:52;;;;;;;3.33;1.88;;;5.00;99.90;;;;;;4991249;28;20051;-70
2021/01/22 07:09:20;;;;;;;6.55;1.60;;;4.90;99.90;;;;;;4992069;28;20070;-67
2021/01/22 07:11:59;;;;;;;3.38;0.98;;;4.90;99.90;;;;;;4992225;28;20077;-67
2021/01/22 07:14:35;;;;;;;2.20;0.60;;;4.90;99.90;;;;;;4972421;28;20445;-67
2021/01/22 07:17:20;;;;;;;2.17;0.80;;;4.80;99.90;;;;;;4973109;28;20070;-67
2021/01/22 07:19:59;;;;;;;1.35;1.05;;;4.80;99.90;;;;;;4972990;28;20519;-66
2021/01/22 07:22:27;;;;;;;2.45;1.23;;;4.80;99.90;;;;;;4974718;28;20051;-69
2021/01/22 07:24:57;;;;;;;3.22;1.10;;;4.80;99.90;;;;;;4976693;28;20046;-66
2021/01/22 07:27:38;;;;;;;2.88;1.25;;;4.80;99.90;;;;;;4975975;28;20043;-68
2021/01/22 07:30:13;;;;;;;2.35;1.48;;;4.70;99.90;;;;;;4976872;28;20461;-68
2021/01/22 07:32:41;;;;;;;2.58;1.02;;;4.70;99.90;;;;;;4976155;28;20047;-68
2021/01/22 07:35:09;;;;;;;6.03;2.17;;;4.60;99.90;;;;;;4976345;28;20054;-68
2021/01/22 07:37:38;;;;;;;3.97;2.35;;;4.60;99.90;;;;;;4976096;28;20129;-66
2021/01/22 07:40:10;;;;;;;9.85;2.88;;;4.60;99.90;;;;;;4976530;28;20054;-68
2021/01/22 07:42:37;;;;;;;4.10;2.42;;;4.60;99.90;;;;;;4975658;28;20054;-67
2021/01/22 07:45:10;;;;;;;11.30;2.90;;;4.60;99.90;;;;;;4976499;28;20046;-67
2021/01/22 07:47:40;;;;;;;1.70;1.60;;;4.70;99.90;;;;;;4975327;28;20514;-67
2021/01/22 07:50:08;;;;;;;3.00;1.50;;;4.60;99.90;;;;;;4976130;28;20518;-68
2021/01/22 07:52:37;;;;;;;2.65;2.05;;;4.60;99.90;;;;;;4975455;28;20049;-68
2021/01/22 07:55:04;;;;;;;8.55;3.22;;;4.50;99.90;;;;;;4976160;28;20127;-67
2021/01/22 07:57:32;;;;;;;8.30;3.60;;;4.50;99.90;;;;;;4975915;28;20042;-69
2021/01/22 08:00:07;;;;;;;9.63;6.03;;;4.50;99.90;;;;;;4975914;28;20572;-68
2021/01/22 08:02:38;;;;;;;6.05;3.47;;;4.50;99.90;;;;;;4976517;28;20056;-68
2021/01/22 08:05:08;;;;;;;6.93;4.78;;;4.40;99.90;;;;;;4994606;28;20076;-70
2021/01/22 08:07:37;;;;;;;12.02;4.47;;;4.40;99.90;;;;;;4994048;28;20046;-68
2021/01/22 08:10:06;;;;;;;6.60;2.33;;;4.40;99.90;;;;;;4994955;28;20050;-69
2021/01/22 08:12:34;;;;;;;4.97;3.42;;;4.40;99.90;;;;;;5000167;28;20368;-68
2021/01/22 08:15:14;;;;;;;3.78;2.03;;;4.50;99.90;;;;;;5009320;28;20038;-68
2021/01/22 08:17:44;;;;;;;3.30;2.25;;;4.50;99.90;;;;;;4992609;28;20452;-68
2021/01/22 08:20:12;;;;;;;3.42;1.60;;;4.50;99.90;;;;;;4993962;28;20121;-68
2021/01/22 08:22:39;;;;;;;2.58;1.70;;;4.50;99.90;;;;;;4995133;28;20046;-68
2021/01/22 08:25:06;;;;;;;3.03;2.22;;;4.50;99.90;;;;;;4994676;28;20042;-68
2021/01/22 08:27:34;;;;;;;7.97;3.83;;;4.40;99.90;;;;;;4993808;28;20038;-68
2021/01/22 08:30:01;;;;;;;13.68;7.32;;;4.40;99.90;;;;;;4994045;28;20408;-67
2021/01/22 08:32:29;;;;;;;19.52;12.88;;;4.40;99.90;;;;;;4993846;28;20047;-67
2021/01/22 08:34:56;;;;;;;15.98;10.65;;;4.50;99.90;;;;;;4992739;28;20117;-69
2021/01/22 08:37:23;;;;;;;15.18;9.65;;;4.40;99.90;;;;;;4995253;28;20049;-70
2021/01/22 08:39:55;;;;;;;8.95;4.35;;;4.40;99.90;;;;;;4993023;28;20054;-68
2021/01/22 08:42:23;;;;;;;9.27;4.53;;;4.40;99.90;;;;;;4987823;28;20392;-69
2021/01/22 08:44:56;;;;;;;5.13;3.65;;;4.50;99.90;;;;;;5001625;28;20053;-68
2021/01/22 08:47:23;;;;;;;10.65;6.05;;;4.50;99.90;;;;;;4996431;28;20058;-69
2021/01/22 08:50:01;;;;;;;3.72;2.92;;;4.50;99.90;;;;;;5001192;28;20042;-68
2021/01/22 08:52:30;;;;;;;7.72;4.75;;;4.50;99.90;;;;;;4989572;28;20082;-68
2021/01/22 08:55:01;;;;;;;7.22;5.65;;;4.50;99.90;;;;;;4993509;28;20045;-69
2021/01/22 08:57:31;;;;;;;7.70;5.80;;;4.50;99.90;;;;;;4992744;28;20068;-67
2021/01/22 09:00:00;;;;;;;32.42;18.33;;;4.60;99.90;;;;;;4994100;28;20042;-68
2021/01/22 09:02:36;;;;;;;10.25;3.20;;;4.60;99.90;;;;;;4998454;28;20157;-69
2021/01/22 09:05:04;;;;;;;4.25;3.60;;;4.60;99.90;;;;;;5004741;28;20046;-68
2021/01/22 09:07:31;;;;;;;9.60;7.50;;;4.60;99.90;;;;;;5004565;28;20125;-68
2021/01/22 09:09:58;;;;;;;9.07;5.95;;;4.60;99.90;;;;;;4991452;28;20038;-68
2021/01/22 09:12:27;;;;;;;9.05;5.93;;;4.60;99.90;;;;;;4995848;28;20037;-70
2021/01/22 09:14:56;;;;;;;6.30;3.70;;;4.70;99.90;;;;;;4995221;28;20093;-67
2021/01/22 09:17:40;;;;;;;8.77;5.85;;;4.70;99.90;;;;;;4993277;28;20038;-68
2021/01/22 09:20:12;;;;;;;12.70;8.13;;;4.70;99.90;;;;;;4991993;28;20439;-68
2021/01/22 09:22:39;;;;;;;7.85;6.50;;;4.70;99.90;;;;;;4992018;28;20038;-67
2021/01/22 09:25:06;;;;;;;;;;;4.80;99.90;;;;;;4994239;28;20043;-68
2021/01/22 09:27:35;;;;;;;12.25;7.22;;;4.80;99.90;;;;;;4989495;28;19940;-70
2021/01/22 09:30:03;;;;;;;3.08;2.72;;;4.80;99.90;;;;;;4998727;28;20046;-68
2021/01/22 09:32:29;;;;;;;2.85;2.47;;;4.80;99.90;;;;;;4984633;28;20168;-68
2021/01/22 09:34:57;;;;;;;3.63;2.35;;;4.80;99.90;;;;;;4991308;28;20480;-69
2021/01/22 09:37:24;;;;;;;2.50;2.30;;;4.80;99.90;;;;;;4985429;28;20376;-69
2021/01/22 09:39:50;;;;;;;;;;;4.80;99.90;;;;;;4991929;28;20185;-70
2021/01/22 09:42:17;;;;;;;14.20;7.13;;;4.80;99.90;;;;;;4992253;28;19949;-67
2021/01/22 09:44:45;;;;;;;10.27;4.63;;;4.80;99.90;;;;;;4988643;28;20049;-69
2021/01/22 09:47:12;;;;;;;10.30;5.07;;;4.80;99.90;;;;;;4990382;28;20526;-68
2021/01/22 09:49:38;;;;;;;;;;;4.90;99.90;;;;;;4990773;28;20042;-69
2021/01/22 09:52:06;;;;;;;2.38;1.48;;;4.80;99.90;;;;;;4990708;28;20363;-68
2021/01/22 09:54:42;;;;;;;3.53;1.60;;;4.80;99.90;;;;;;4989757;28;20137;-69
2021/01/22 09:57:09;;;;;;;3.90;1.55;;;4.90;99.90;;;;;;4990426;28;20054;-69
2021/01/22 09:59:35;;;;;;;4.05;1.95;;;4.80;99.90;;;;;;4991681;28;20052;-68
2021/01/22 10:02:02;;;;;;;;;;;4.90;99.90;;;;;;4991891;28;20042;-66
2021/01/22 10:04:28;;;;;;;3.38;2.40;;;4.90;99.90;;;;;;4989475;28;20284;-71
2021/01/22 10:06:55;;;;;;;12.73;9.15;;;5.00;99.90;;;;;;4988361;28;20559;-68
2021/01/22 10:09:23;;;;;;;6.60;3.25;;;5.00;99.90;;;;;;4992539;28;20049;-68
2021/01/22 10:11:49;;;;;;;3.30;1.58;;;5.10;99.90;;;;;;4974794;28;20054;-68
2021/01/22 10:14:16;;;;;;;;;;;5.10;99.90;;;;;;4991858;28;20042;-69
2021/01/22 10:16:43;;;;;;;3.08;1.45;;;5.20;99.90;;;;;;4995608;28;19921;-68
2021/01/22 10:19:10;;;;;;;3.88;1.70;;;5.00;99.90;;;;;;4993352;28;20066;-68
2021/01/22 10:21:37;;;;;;;4.88;1.52;;;5.00;99.90;;;;;;4988301;28;20050;-68
2021/01/22 10:24:03;;;;;;;;;;;4.90;99.90;;;;;;4992019;28;20050;-68
2021/01/22 10:26:33;;;;;;;2.30;1.20;;;4.90;99.90;;;;;;4991247;28;19926;-69
2021/01/22 10:29:01;;;;;;;2.47;1.63;;;4.90;99.90;;;;;;4994802;28;20053;-70
2021/01/22 10:31:28;;;;;;;;;;;4.90;99.90;;;;;;4998520;28;20025;-69
2021/01/22 10:33:54;;;;;;;1.63;1.20;;;4.80;99.90;;;;;;4998401;28;19917;-67
2021/01/22 10:36:22;;;;;;;11.45;9.45;;;5.00;99.90;;;;;;4997049;28;20099;-65
2021/01/22 10:38:48;;;;;;;;;;;4.90;99.90;;;;;;5008565;28;20038;-66
2021/01/22 10:41:15;;;;;;;4.78;4.35;;;4.90;99.90;;;;;;4993720;28;19923;-69
2021/01/22 10:43:42;;;;;;;5.47;4.10;;;5.00;99.90;;;;;;4984560;28;20049;-66
2021/01/22 10:46:09;;;;;;;2.05;1.85;;;5.10;99.90;;;;;;4988912;28;20468;-67
2021/01/22 10:48:35;;;;;;;;;;;5.10;99.90;;;;;;4995150;28;20050;-66
2021/01/22 10:51:02;;;;;;;2.80;1.17;;;5.00;99.90;;;;;;4995319;28;19921;-66
2021/01/22 10:53:28;;;;;;;;;;;5.00;99.90;;;;;;5000644;28;20057;-67
2021/01/22 10:55:55;;;;;;;1.75;1.38;;;5.00;99.90;;;;;;5003814;28;19917;-66
2021/01/22 10:58:21;;;;;;;;;;;5.00;99.90;;;;;;4998971;28;20073;-66
2021/01/22 11:00:49;;;;;;;2.17;1.70;;;4.90;99.90;;;;;;4983441;28;19918;-66
2021/01/22 11:03:16;;;;;;;1.30;1.15;;;5.00;99.90;;;;;;4995320;28;20046;-66
2021/01/22 11:05:51;;;;;;;;;;;4.90;99.90;;;;;;4992011;28;20054;-67
2021/01/22 11:08:18;;;;;;;2.08;1.90;;;5.00;99.90;;;;;;4989220;28;21201;-65
2021/01/22 11:10:46;;;;;;;2.03;1.70;;;5.00;99.90;;;;;;4994998;28;20034;-66
2021/01/22 11:13:13;;;;;;;3.83;1.58;;;5.10;99.90;;;;;;4996434;28;20034;-67
2021/01/22 11:15:41;;;;;;;3.63;1.00;;;5.20;99.90;;;;;;4994142;28;20398;-67
2021/01/22 11:18:10;;;;;;;2.97;1.67;;;5.10;99.90;;;;;;4993395;28;20054;-66
2021/01/22 11:20:38;;;;;;;6.00;4.43;;;5.10;99.90;;;;;;4995093;28;20066;-68
2021/01/22 11:23:06;;;;;;;1.35;1.13;;;5.10;99.90;;;;;;5010546;28;20046;-67
2021/01/22 11:25:36;;;;;;;3.22;1.30;;;5.20;99.90;;;;;;5006412;28;20081;-71
2021/01/22 11:28:04;;;;;;;2.15;1.42;;;5.10;99.90;;;;;;4991557;28;20035;-68
2021/01/22 11:30:32;;;;;;;4.78;1.10;;;5.10;99.90;;;;;;5009969;28;20053;-68
2021/01/22 11:33:00;;;;;;;1.55;1.17;;;5.20;99.90;;;;;;4998214;28;20543;-67
2021/01/22 11:35:28;;;;;;;5.60;1.30;;;5.30;99.90;;;;;;5008638;28;20050;-68
2021/01/22 11:37:54;;;;;;;1.70;1.48;;;5.30;99.90;;;;;;4993224;28;20061;-67
2021/01/22 11:40:21;;;;;;;5.18;1.20;;;5.40;99.90;;;;;;4994203;28;20038;-68
2021/01/22 11:42:47;;;;;;;3.20;0.80;;;5.40;99.90;;;;;;4991923;28;20045;-67
2021/01/22 11:45:14;;;;;;;;;;;5.50;99.90;;;;;;4986786;28;20492;-69
2021/01/22 11:47:41;;;;;;;2.25;1.70;;;5.60;99.90;;;;;;4991796;28;19928;-67
2021/01/22 11:50:08;;;;;;;;;;;5.60;99.90;;;;;;4995118;28;20441;-67
2021/01/22 11:52:36;;;;;;;3.38;1.27;;;5.50;99.90;;;;;;4992512;28;19921;-70
2021/01/22 11:55:03;;;;;;;1.63;1.38;;;5.50;99.90;;;;;;5008574;28;20653;-70
2021/01/22 11:57:29;;;;;;;10.05;9.35;;;5.50;99.90;;;;;;4994722;28;20154;-67
2021/01/22 11:59:56;;;;;;;;;;;5.50;99.90;;;;;;4995806;28;20121;-66
2021/01/22 12:02:22;;;;;;;7.22;6.53;;;5.30;99.90;;;;;;4994592;28;19921;-65
2021/01/22 12:04:49;;;;;;;;;;;5.20;99.90;;;;;;4992153;28;20038;-67
2021/01/22 12:07:16;;;;;;;16.08;10.30;;;5.30;99.90;;;;;;4985865;28;20446;-66
2021/01/22 12:09:44;;;;;;;19.48;15.15;;;5.20;99.90;;;;;;4990625;28;20042;-66
2021/01/22 12:12:11;;;;;;;5.75;3.63;;;5.10;99.90;;;;;;4991353;28;20113;-66
2021/01/22 12:14:37;;;;;;;6.60;3.88;;;5.00;99.90;;;;;;4994350;28;20050;-66
2021/01/22 12:17:04;;;;;;;;;;;5.10;99.90;;;;;;4992645;28;20068;-65
2021/01/22 12:19:30;;;;;;;12.38;10.05;;;5.10;99.90;;;;;;4994490;28;20020;-66
2021/01/22 12:21:57;;;;;;;11.38;10.50;;;5.10;99.90;;;;;;4987935;28;20136;-66
2021/01/22 12:24:23;;;;;;;1.40;1.05;;;5.10;99.90;;;;;;4994141;28;20034;-67
2021/01/22 12:26:51;;;;;;;2.88;2.67;;;5.30;99.90;;;;;;4993213;28;20042;-67
2021/01/22 12:29:18;;;;;;;0.85;0.85;;;5.10;99.90;;;;;;4985301;28;20042;-67
2021/01/22 12:31:45;;;;;;;1.83;1.35;;;5.20;99.90;;;;;;4993598;28;20121;-69
2021/01/22 12:34:11;;;;;;;1.98;1.00;;;5.20;99.90;;;;;;4992762;28;20113;-66
2021/01/22 12:36:38;;;;;;;;;;;5.40;99.90;;;;;;4994202;28;20050;-67
2021/01/22 12:39:05;;;;;;;2.92;1.48;;;5.20;99.90;;;;;;4994653;28;19952;-66
2021/01/22 12:41:34;;;;;;;1.75;1.20;;;5.20;99.90;;;;;;4993769;28;20503;-67
2021/01/22 12:44:01;;;;;;;6.82;3.83;;;5.20;99.90;;;;;;4992879;28;20394;-66
2021/01/22 12:46:29;;;;;;;1.05;0.93;;;5.40;99.90;;;;;;5008870;28;20051;-67
2021/01/22 12:48:56;;;;;;;4.85;3.30;;;5.40;99.90;;;;;;4992406;28;20073;-66
2021/01/22 12:51:24;;;;;;;1.73;1.27;;;5.40;99.90;;;;;;4992157;28;20046;-66
2021/01/22 12:53:51;;;;;;;13.95;4.72;;;5.50;99.90;;;;;;4991420;28;20046;-67
2021/01/22 12:56:18;;;;;;;;;;;5.50;99.90;;;;;;4994505;28;20039;-67
2021/01/22 12:58:44;;;;;;;8.35;3.22;;;5.60;99.90;;;;;;4992815;28;19929;-67
2021/01/22 13:01:11;;;;;;;;;;;5.70;99.90;;;;;;4994218;28;20049;-66
2021/01/22 13:03:39;;;;;;;18.92;7.68;;;5.60;99.90;;;;;;4992727;28;20375;-67
2021/01/22 13:06:06;;;;;;;25.70;10.02;;;5.60;99.90;;;;;;4992966;28;20092;-66
2021/01/22 13:08:33;;;;;;;7.40;3.08;;;5.60;99.90;;;;;;4984973;28;20092;-67
2021/01/22 13:11:00;;;;;;;45.17;13.52;;;5.60;99.90;;;;;;4995323;28;20221;-67